METAR Data
IDs: Format: Raw Decoded Include TAF

Data at: 1243 UTC 26 Feb 2021

GCFV 261230Z 03019KT 9999 SCT040 20/08 Q1025